Time;durP1;ratioP1;P1;durP2;ratioP2;P2;SDS_P1;SDS_P2;PMS_P1;PMS_P2;Temp;Humidity;BMP_temperature;BMP_pressure;BME280_temperature;BME280_humidity;BME280_pressure;Samples;Min_cycle;Max_cycle;Signal;HPM_P1;HPM_P2
2022/07/22 00:01:54;;;;;;;4.88;1.70;;;26.40;99.90;;;;;;4136013;28;20042;-64
2022/07/22 00:03:59;;;;;;;3.30;1.30;;;26.30;99.90;;;;;;4133731;28;20741;-63
2022/07/22 00:06:04;;;;;;;4.05;1.38;;;26.30;99.90;;;;;;4137596;28;20512;-62
2022/07/22 00:08:09;;;;;;;3.22;1.20;;;26.30;99.90;;;;;;4133064;28;20311;-64
2022/07/22 00:10:16;;;;;;;1.95;1.35;;;26.20;99.90;;;;;;4133492;28;20042;-63
2022/07/22 00:12:23;;;;;;;2.63;1.40;;;26.20;99.90;;;;;;4134929;28;20045;-64
2022/07/22 00:14:30;;;;;;;3.33;1.55;;;26.30;99.90;;;;;;4131781;28;20069;-64
2022/07/22 00:16:37;;;;;;;2.80;1.63;;;26.40;99.90;;;;;;4135160;28;20056;-64
2022/07/22 00:18:43;;;;;;;3.20;1.20;;;26.30;99.90;;;;;;4133973;28;20580;-64
2022/07/22 00:20:48;;;;;;;2.17;1.33;;;26.40;99.90;;;;;;4132724;28;20056;-63
2022/07/22 00:22:55;;;;;;;3.72;1.40;;;26.40;99.90;;;;;;4132835;28;20428;-68
2022/07/22 00:25:02;;;;;;;6.75;2.00;;;26.40;99.90;;;;;;4137831;28;20082;-67
2022/07/22 00:27:09;;;;;;;6.15;3.88;;;26.50;99.90;;;;;;4128445;28;20096;-71
2022/07/22 00:29:14;;;;;;;12.05;5.90;;;26.60;99.90;;;;;;4127938;28;20043;-70
2022/07/22 00:31:20;;;;;;;10.80;6.22;;;26.80;99.90;;;;;;4096070;28;20039;-67
2022/07/22 00:33:25;;;;;;;10.00;5.40;;;26.80;99.90;;;;;;4125541;28;20042;-66
2022/07/22 00:35:30;;;;;;;7.30;4.05;;;26.90;99.90;;;;;;4124528;28;20078;-66
2022/07/22 00:37:34;;;;;;;8.63;3.70;;;27.10;99.90;;;;;;4124631;28;20104;-66
2022/07/22 00:39:40;;;;;;;6.45;2.88;;;27.10;99.90;;;;;;4129029;28;20461;-66
2022/07/22 00:41:47;;;;;;;4.95;1.95;;;27.20;99.90;;;;;;4133267;28;20045;-65
2022/07/22 00:44:05;;;;;;;3.38;1.90;;;27.20;99.90;;;;;;4132763;28;20046;-66
2022/07/22 00:46:09;;;;;;;4.10;1.67;;;27.30;99.90;;;;;;4162192;28;20044;-66
2022/07/22 00:48:16;;;;;;;4.40;1.95;;;27.40;99.90;;;;;;4132474;28;20087;-66
2022/07/22 00:50:23;;;;;;;2.95;1.60;;;27.40;99.90;;;;;;4122866;28;20081;-65
2022/07/22 00:52:28;;;;;;;6.07;1.88;;;27.50;99.90;;;;;;4129604;28;20045;-66
2022/07/22 00:54:36;;;;;;;3.63;1.45;;;27.60;99.90;;;;;;4132837;28;20049;-65
2022/07/22 00:56:43;;;;;;;3.28;1.52;;;27.60;99.90;;;;;;4134397;28;20157;-66
2022/07/22 00:58:48;;;;;;;3.10;1.55;;;27.70;99.90;;;;;;4129822;28;20100;-65
2022/07/22 01:00:55;;;;;;;2.55;1.40;;;27.60;99.90;;;;;;4131681;28;20050;-65
2022/07/22 01:03:03;;;;;;;5.38;1.85;;;27.60;99.90;;;;;;4114588;28;20561;-66
2022/07/22 01:05:08;;;;;;;4.50;1.90;;;27.50;99.90;;;;;;4133372;28;20046;-66
2022/07/22 01:07:13;;;;;;;3.20;1.70;;;27.50;99.90;;;;;;4129599;28;20050;-65
2022/07/22 01:09:18;;;;;;;2.55;1.63;;;27.50;99.90;;;;;;4131145;28;20046;-65
2022/07/22 01:11:22;;;;;;;4.03;1.50;;;27.70;99.90;;;;;;4137397;28;20049;-66
2022/07/22 01:13:29;;;;;;;3.35;1.60;;;27.80;99.90;;;;;;4128941;28;20053;-66
2022/07/22 01:15:35;;;;;;;3.00;1.63;;;27.90;99.90;;;;;;4133111;28;20144;-66
2022/07/22 01:17:40;;;;;;;2.35;1.70;;;28.00;99.90;;;;;;4137140;28;20397;-65
2022/07/22 01:19:47;;;;;;;2.25;1.60;;;28.00;99.90;;;;;;4131205;28;20050;-66
2022/07/22 01:21:53;;;;;;;2.38;1.77;;;28.10;99.90;;;;;;4130778;28;20054;-66
2022/07/22 01:23:59;;;;;;;5.45;1.70;;;28.30;99.90;;;;;;4163394;28;20091;-66
2022/07/22 01:26:05;;;;;;;5.45;1.67;;;28.30;99.90;;;;;;4129731;28;20050;-65
2022/07/22 01:28:22;;;;;;;2.85;1.60;;;28.30;99.90;;;;;;4163121;28;20080;-66
2022/07/22 01:30:29;;;;;;;3.28;1.67;;;28.30;99.90;;;;;;4132399;28;20097;-66
2022/07/22 01:32:35;;;;;;;3.97;1.52;;;28.40;99.90;;;;;;4127193;28;20058;-66
2022/07/22 01:34:43;;;;;;;3.80;1.70;;;28.40;99.90;;;;;;4131851;28;20449;-64
2022/07/22 01:36:47;;;;;;;2.97;1.40;;;28.50;99.90;;;;;;4131378;28;20148;-64
2022/07/22 01:38:52;;;;;;;3.35;1.40;;;28.50;99.90;;;;;;4113380;28;20046;-66
2022/07/22 01:40:59;;;;;;;2.05;1.40;;;28.60;99.90;;;;;;4132757;28;20052;-66
2022/07/22 01:43:06;;;;;;;3.53;1.50;;;28.50;99.90;;;;;;4132150;28;20046;-66
2022/07/22 01:45:11;;;;;;;2.05;1.10;;;28.60;99.90;;;;;;4132691;28;20064;-66
2022/07/22 01:47:18;;;;;;;3.40;1.73;;;28.60;99.90;;;;;;4130071;28;20081;-65
2022/07/22 01:49:22;;;;;;;1.67;1.25;;;28.70;99.90;;;;;;4131685;28;20519;-65
2022/07/22 01:51:27;;;;;;;1.92;1.05;;;28.80;99.90;;;;;;4131755;28;20136;-66
2022/07/22 01:53:36;;;;;;;2.78;1.40;;;28.90;99.90;;;;;;4114151;28;20101;-66
2022/07/22 01:55:40;;;;;;;1.83;1.10;;;28.80;99.90;;;;;;4133163;28;20057;-66
2022/07/22 01:57:45;;;;;;;3.58;1.17;;;28.80;99.90;;;;;;4131257;28;20061;-66
2022/07/22 02:00:05;;;;;;;1.60;0.95;;;28.90;99.90;;;;;;4131222;28;20545;-65
2022/07/22 02:02:18;;;;;;;1.25;1.00;;;28.80;99.90;;;;;;4125808;28;20054;-64
2022/07/22 02:04:23;;;;;;;1.65;0.80;;;28.80;99.90;;;;;;4163562;28;20657;-66
2022/07/22 02:06:32;;;;;;;6.68;1.73;;;28.60;99.90;;;;;;4115290;28;20130;-62
2022/07/22 02:08:37;;;;;;;2.80;1.30;;;28.60;99.90;;;;;;4129835;28;20058;-63
2022/07/22 02:10:49;;;;;;;2.67;1.10;;;28.50;99.90;;;;;;4129721;28;20073;-63
2022/07/22 02:12:57;;;;;;;2.20;1.50;;;28.40;99.90;;;;;;4127278;28;20046;-64
2022/07/22 02:15:02;;;;;;;2.65;1.00;;;28.40;99.90;;;;;;4130511;28;20122;-63
2022/07/22 02:17:09;;;;;;;1.35;0.90;;;28.40;99.90;;;;;;4130279;28;20445;-63
2022/07/22 02:19:14;;;;;;;1.05;0.98;;;28.30;99.90;;;;;;4126461;28;20441;-63
2022/07/22 02:21:21;;;;;;;2.50;1.30;;;28.30;99.90;;;;;;4130085;28;20045;-64
2022/07/22 02:23:29;;;;;;;1.90;1.10;;;28.20;99.90;;;;;;4129098;28;20073;-63
2022/07/22 02:25:38;;;;;;;2.58;1.08;;;28.30;99.90;;;;;;4122684;28;20052;-63
2022/07/22 02:27:42;;;;;;;2.35;1.30;;;28.40;99.90;;;;;;4129872;28;20073;-63
2022/07/22 02:29:47;;;;;;;2.13;1.30;;;28.50;99.90;;;;;;4143850;28;20085;-64
2022/07/22 02:31:56;;;;;;;3.78;1.50;;;28.70;99.90;;;;;;4129080;28;20062;-64
2022/07/22 02:34:00;;;;;;;1.77;1.40;;;28.80;99.90;;;;;;4131199;28;20568;-63
2022/07/22 02:36:05;;;;;;;1.55;1.27;;;29.00;99.90;;;;;;4130108;28;20062;-63
2022/07/22 02:38:14;;;;;;;1.40;1.30;;;29.10;99.90;;;;;;4127327;28;20046;-63
2022/07/22 02:40:19;;;;;;;3.28;1.40;;;29.30;99.90;;;;;;4130159;28;20155;-63
2022/07/22 02:42:24;;;;;;;2.58;1.40;;;29.30;99.90;;;;;;4130239;28;20116;-63
2022/07/22 02:44:30;;;;;;;1.45;1.35;;;29.40;99.90;;;;;;4130217;28;20543;-64
2022/07/22 02:46:35;;;;;;;3.95;1.20;;;29.50;99.90;;;;;;4127681;28;20077;-64
2022/07/22 02:48:49;;;;;;;2.05;1.50;;;29.60;99.90;;;;;;4129939;28;20480;-63
2022/07/22 02:50:57;;;;;;;2.50;1.20;;;29.70;99.90;;;;;;4127108;28;20037;-64
2022/07/22 02:53:04;;;;;;;2.17;1.45;;;29.80;99.90;;;;;;4129992;28;20129;-66
2022/07/22 02:55:13;;;;;;;1.83;0.95;;;29.80;99.90;;;;;;4129384;28;20058;-65
2022/07/22 02:57:20;;;;;;;2.25;1.30;;;30.00;99.90;;;;;;4125574;28;20103;-65
2022/07/22 02:59:25;;;;;;;1.20;1.10;;;30.00;99.90;;;;;;4130150;28;20159;-64
2022/07/22 03:01:29;;;;;;;2.88;1.30;;;30.00;99.90;;;;;;4131418;28;20043;-64
2022/07/22 03:03:37;;;;;;;3.13;1.20;;;30.10;99.90;;;;;;4127627;28;20053;-64
2022/07/22 03:05:43;;;;;;;2.92;1.42;;;30.10;99.90;;;;;;4131277;28;20149;-66
2022/07/22 03:08:05;;;;;;;3.38;1.20;;;30.10;99.90;;;;;;4116067;28;20086;-64
2022/07/22 03:10:14;;;;;;;1.48;1.17;;;30.00;99.90;;;;;;4162290;28;20049;-64
2022/07/22 03:12:18;;;;;;;3.88;1.15;;;30.10;99.90;;;;;;4129725;28;20038;-64
2022/07/22 03:14:23;;;;;;;2.28;1.10;;;30.10;99.90;;;;;;4125790;28;20078;-64
2022/07/22 03:16:30;;;;;;;2.72;1.17;;;30.10;99.90;;;;;;4127983;28;20049;-65
2022/07/22 03:18:38;;;;;;;2.00;1.27;;;30.20;99.90;;;;;;4134010;28;20049;-64
2022/07/22 03:20:42;;;;;;;4.32;1.30;;;30.30;99.90;;;;;;4131884;28;20631;-65
2022/07/22 03:22:51;;;;;;;1.55;1.30;;;30.50;99.90;;;;;;4138120;28;20042;-67
2022/07/22 03:25:13;;;;;;;3.97;1.27;;;30.60;99.90;;;;;;4133153;28;20054;-64
2022/07/22 03:27:19;;;;;;;1.80;1.40;;;30.70;99.90;;;;;;4132557;28;20065;-65
2022/07/22 03:29:27;;;;;;;1.38;1.27;;;30.80;99.90;;;;;;4132639;28;20077;-65
2022/07/22 03:31:33;;;;;;;2.38;1.20;;;30.70;99.90;;;;;;4133738;28;20042;-64
2022/07/22 03:33:39;;;;;;;3.05;1.20;;;30.70;99.90;;;;;;4130336;28;20610;-64
2022/07/22 03:35:50;;;;;;;6.75;1.58;;;30.60;99.90;;;;;;4132788;28;20438;-64
2022/07/22 05:14:56;;;;;;;3.65;1.85;;;30.70;99.90;;;;;;4131329;28;20046;-64
2022/07/22 05:17:01;;;;;;;4.30;1.60;;;30.80;99.90;;;;;;4129722;28;20112;-63
2022/07/22 05:19:07;;;;;;;2.35;1.60;;;31.00;99.90;;;;;;4127454;28;20046;-63
2022/07/22 05:21:13;;;;;;;3.00;1.42;;;31.30;99.90;;;;;;4130488;28;20049;-63
2022/07/22 05:23:18;;;;;;;1.60;1.10;;;31.60;99.90;;;;;;4131266;28;20520;-63
2022/07/22 05:25:24;;;;;;;1.48;1.10;;;31.90;99.90;;;;;;4130410;28;20500;-62
2022/07/22 05:27:31;;;;;;;1.38;1.10;;;31.90;99.90;;;;;;4113192;28;20142;-62
2022/07/22 05:29:36;;;;;;;3.20;1.15;;;31.80;99.90;;;;;;4131536;28;20483;-63
2022/07/22 05:31:55;;;;;;;1.88;1.25;;;31.70;99.90;;;;;;4127405;28;20168;-63
2022/07/22 05:34:00;;;;;;;1.30;1.20;;;31.60;99.90;;;;;;4130800;28;20129;-64
2022/07/22 05:36:10;;;;;;;1.58;1.00;;;31.60;99.90;;;;;;4130110;28;20120;-64
2022/07/22 05:38:20;;;;;;;1.48;0.88;;;31.60;99.90;;;;;;4134086;28;20046;-63
2022/07/22 05:40:28;;;;;;;1.58;1.10;;;31.50;99.90;;;;;;4134650;28;20378;-62
2022/07/22 05:42:33;;;;;;;1.60;1.00;;;31.80;99.90;;;;;;4161669;28;20347;-63
2022/07/22 05:44:38;;;;;;;1.15;1.05;;;31.90;99.90;;;;;;4134106;28;20046;-62
2022/07/22 05:46:45;;;;;;;1.30;1.10;;;31.80;99.90;;;;;;4132893;28;20055;-63
2022/07/22 05:48:50;;;;;;;1.85;0.90;;;31.80;99.90;;;;;;4130100;28;20109;-63
2022/07/22 05:50:56;;;;;;;2.80;1.02;;;31.80;99.90;;;;;;4124908;28;20161;-63
2022/07/22 05:53:01;;;;;;;1.55;1.13;;;31.60;99.90;;;;;;4128486;28;20220;-63
2022/07/22 05:55:09;;;;;;;1.58;1.20;;;31.30;99.90;;;;;;4130421;28;20536;-63
2022/07/22 05:57:17;;;;;;;1.40;0.93;;;31.30;99.90;;;;;;4130322;28;20042;-63
2022/07/22 05:59:24;;;;;;;2.13;1.02;;;31.20;99.90;;;;;;4128337;28;20049;-64
2022/07/22 06:01:42;;;;;;;1.30;1.20;;;31.00;99.90;;;;;;4129785;28;20140;-62
2022/07/22 06:04:07;;;;;;;2.58;1.00;;;31.00;99.90;;;;;;4129802;28;20486;-64
2022/07/22 06:06:11;;;;;;;1.10;1.00;;;30.90;99.90;;;;;;4128145;28;20085;-64
2022/07/22 06:08:27;;;;;;;2.35;1.30;;;30.80;99.90;;;;;;4130355;28;20050;-63
2022/07/22 06:10:33;;;;;;;1.40;1.25;;;30.60;99.90;;;;;;4130716;28;20141;-62
2022/07/22 06:12:39;;;;;;;3.00;1.40;;;30.60;99.90;;;;;;4130028;28;20054;-62
2022/07/22 06:14:46;;;;;;;1.42;1.33;;;30.60;99.90;;;;;;4127706;28;20050;-64
2022/07/22 06:16:50;;;;;;;2.13;1.30;;;30.50;99.90;;;;;;4123192;28;20125;-64
2022/07/22 06:18:58;;;;;;;3.25;2.28;;;30.30;99.90;;;;;;4123157;28;20069;-64
2022/07/22 06:21:04;;;;;;;5.28;2.35;;;29.90;99.90;;;;;;4122160;28;20488;-63
2022/07/22 06:23:09;;;;;;;4.55;2.50;;;29.60;99.90;;;;;;4122482;28;20081;-61
2022/07/22 06:25:17;;;;;;;4.50;2.38;;;29.40;99.90;;;;;;4120120;28;20077;-62
2022/07/22 06:27:43;;;;;;;7.95;3.75;;;29.40;99.90;;;;;;4105350;28;20074;-62
2022/07/22 06:29:48;;;;;;;7.85;3.40;;;29.20;99.90;;;;;;4120291;28;20104;-62
2022/07/22 06:31:55;;;;;;;6.10;2.85;;;28.90;99.90;;;;;;4122022;28;20066;-63
2022/07/22 06:33:59;;;;;;;5.97;2.83;;;28.50;99.90;;;;;;4122176;28;20057;-63
2022/07/22 06:36:14;;;;;;;5.38;2.40;;;28.40;99.90;;;;;;4122210;28;20046;-63
2022/07/22 06:38:19;;;;;;;6.45;2.28;;;28.20;99.90;;;;;;4123707;28;20149;-63
2022/07/22 06:40:54;;;;;;;4.43;2.05;;;28.20;99.90;;;;;;4123602;28;20338;-63
2022/07/22 06:43:18;;;;;;;2.92;1.50;;;28.10;99.90;;;;;;4123795;28;20054;-62
2022/07/22 06:45:46;;;;;;;4.03;1.75;;;27.60;99.90;;;;;;4123723;28;20281;-62
2022/07/22 06:48:07;;;;;;;;;;;27.70;99.90;;;;;;4122910;28;20089;-63
2022/07/22 06:50:12;;;;;;;4.10;2.10;;;27.80;99.90;;;;;;4154034;28;19960;-62
2022/07/22 06:52:22;;;;;;;4.25;2.20;;;27.80;99.90;;;;;;4120992;28;20046;-62
2022/07/22 06:54:28;;;;;;;4.03;2.03;;;27.90;99.90;;;;;;4123624;28;20054;-62
2022/07/22 06:56:34;;;;;;;3.58;1.60;;;27.90;99.90;;;;;;4124308;28;20129;-62
2022/07/22 06:58:43;;;;;;;2.95;1.23;;;27.80;99.90;;;;;;4158562;28;20044;-62
2022/07/22 07:00:47;;;;;;;6.70;1.83;;;27.80;99.90;;;;;;4131288;28;20164;-62
2022/07/22 07:03:04;;;;;;;3.00;1.20;;;27.70;99.90;;;;;;4134880;28;20058;-63
2022/07/22 07:05:36;;;;;;;5.20;1.48;;;27.70;99.90;;;;;;4083936;28;20067;-62
2022/07/22 07:07:41;;;;;;;3.78;1.38;;;27.70;99.90;;;;;;4102472;28;20413;-62
2022/07/22 07:09:46;;;;;;;3.20;1.50;;;27.60;99.90;;;;;;4101236;28;20038;-62
2022/07/22 07:12:00;;;;;;;6.43;1.58;;;27.80;99.90;;;;;;4031996;29;20045;-62
2022/07/22 07:14:17;;;;;;;4.30;1.70;;;27.80;99.90;;;;;;4092248;28;20382;-62
2022/07/22 07:16:23;;;;;;;3.45;1.60;;;27.80;99.90;;;;;;4075842;29;20588;-62
2022/07/22 07:18:29;;;;;;;4.47;1.88;;;27.70;99.90;;;;;;4092470;29;20106;-62
2022/07/22 07:20:34;;;;;;;3.03;1.73;;;27.80;99.90;;;;;;4076689;29;20055;-62
2022/07/22 07:22:42;;;;;;;3.88;1.58;;;27.80;99.90;;;;;;4076681;29;20258;-62
2022/07/22 07:24:47;;;;;;;5.38;1.80;;;27.80;99.90;;;;;;4076000;29;20054;-62
2022/07/22 07:26:52;;;;;;;4.22;1.80;;;27.80;99.90;;;;;;4076696;29;20088;-62
2022/07/22 07:28:57;;;;;;;6.45;2.00;;;27.80;99.90;;;;;;4076458;29;20063;-62
2022/07/22 07:31:13;;;;;;;3.10;2.00;;;27.80;99.90;;;;;;4076557;29;20179;-62
2022/07/22 07:33:18;;;;;;;4.63;2.50;;;27.90;99.90;;;;;;4082840;28;20051;-63
2022/07/22 07:35:23;;;;;;;4.85;2.50;;;27.90;99.90;;;;;;4081636;29;20337;-62
2022/07/22 07:37:36;;;;;;;4.03;2.28;;;28.00;99.90;;;;;;4082385;29;20047;-63
2022/07/22 07:39:40;;;;;;;4.75;2.70;;;28.00;99.90;;;;;;4096681;28;20050;-62
2022/07/22 07:41:45;;;;;;;3.22;2.47;;;28.00;99.90;;;;;;4112921;28;20081;-62
2022/07/22 07:44:00;;;;;;;5.45;2.58;;;28.10;99.90;;;;;;4124576;28;20636;-62
2022/07/22 07:46:07;;;;;;;2.85;2.13;;;28.10;99.90;;;;;;4130396;28;20538;-62
2022/07/22 07:48:12;;;;;;;2.90;2.35;;;28.20;99.90;;;;;;4132645;28;20050;-62
2022/07/22 07:50:18;;;;;;;4.15;2.30;;;28.20;99.90;;;;;;4130762;28;20073;-62
2022/07/22 07:52:22;;;;;;;7.00;2.40;;;28.20;99.90;;;;;;4133821;28;20097;-61
2022/07/22 07:54:27;;;;;;;4.53;2.45;;;28.20;99.90;;;;;;4115830;28;20042;-61
2022/07/22 07:56:56;;;;;;;3.03;2.30;;;28.20;99.90;;;;;;4097604;28;20098;-63
2022/07/22 07:59:00;;;;;;;6.28;2.45;;;28.20;99.90;;;;;;4097579;28;20070;-63
2022/07/22 08:01:26;;;;;;;3.92;2.28;;;28.20;99.90;;;;;;4082999;29;20458;-63
2022/07/22 08:03:54;;;;;;;2.53;2.10;;;28.10;99.90;;;;;;4063931;29;20478;-63
2022/07/22 08:06:19;;;;;;;6.00;2.22;;;28.10;99.90;;;;;;4066559;29;20055;-62
2022/07/22 08:08:24;;;;;;;3.67;2.30;;;28.20;99.90;;;;;;4063931;29;20063;-62
2022/07/22 08:10:34;;;;;;;2.00;1.80;;;28.30;99.90;;;;;;4033678;29;20049;-61
2022/07/22 08:13:16;;;;;;;;;;;28.20;99.90;;;;;;4066376;29;20079;-62
2022/07/22 08:15:34;;;;;;;2.33;1.90;;;28.30;99.90;;;;;;4065477;29;19927;-62
2022/07/22 08:17:44;;;;;;;3.35;2.40;;;28.30;99.90;;;;;;4051171;29;20052;-63
2022/07/22 08:19:49;;;;;;;3.80;2.70;;;28.20;99.90;;;;;;4067076;29;20052;-62
2022/07/22 08:21:55;;;;;;;4.93;3.10;;;28.20;99.90;;;;;;4053099;29;20134;-62
2022/07/22 08:24:05;;;;;;;6.70;3.92;;;28.30;99.90;;;;;;4051467;29;20053;-62
2022/07/22 08:26:10;;;;;;;6.75;3.92;;;28.40;99.90;;;;;;4062224;29;20051;-62
2022/07/22 08:28:15;;;;;;;4.72;3.40;;;28.40;99.90;;;;;;4063488;29;20051;-62
2022/07/22 08:30:26;;;;;;;7.13;3.30;;;28.50;99.90;;;;;;4049837;29;20059;-63
2022/07/22 08:32:33;;;;;;;4.28;3.00;;;28.50;99.90;;;;;;4066755;29;20040;-63
2022/07/22 08:34:39;;;;;;;4.75;2.70;;;28.50;99.90;;;;;;4062074;29;20518;-63
2022/07/22 08:36:49;;;;;;;3.35;2.45;;;28.50;99.90;;;;;;4095858;28;20043;-62
2022/07/22 08:38:54;;;;;;;3.53;2.47;;;28.50;99.90;;;;;;4098518;28;20070;-61
2022/07/22 08:41:01;;;;;;;3.42;1.80;;;28.50;99.90;;;;;;4090678;28;20047;-62
2022/07/22 08:43:13;;;;;;;1.88;1.50;;;28.50;99.90;;;;;;4131423;28;20042;-62
2022/07/22 08:45:18;;;;;;;2.97;1.65;;;28.60;99.90;;;;;;4132029;28;20488;-62
2022/07/22 08:47:24;;;;;;;2.33;1.65;;;28.60;99.90;;;;;;4131740;28;20053;-62
2022/07/22 08:49:59;;;;;;;3.67;1.70;;;28.50;99.90;;;;;;4130197;28;20042;-62
2022/07/22 08:52:19;;;;;;;2.72;2.03;;;28.60;99.90;;;;;;4132907;28;20092;-62
2022/07/22 08:54:30;;;;;;;4.90;2.40;;;28.60;99.90;;;;;;4133268;28;20045;-62
2022/07/22 08:56:39;;;;;;;3.42;1.92;;;28.60;99.90;;;;;;4134251;28;20516;-61
2022/07/22 08:58:43;;;;;;;31.17;9.35;;;28.60;99.90;;;;;;4133950;28;20050;-62
2022/07/22 09:01:05;;;;;;;3.25;1.92;;;28.60;99.90;;;;;;4134114;28;20033;-62
2022/07/22 09:03:27;;;;;;;3.80;2.08;;;28.50;99.90;;;;;;4134305;28;20572;-63
2022/07/22 09:05:35;;;;;;;2.63;1.67;;;28.50;99.90;;;;;;4132878;28;20145;-63
2022/07/22 09:07:53;;;;;;;2.00;1.60;;;28.40;99.90;;;;;;4134185;28;20042;-63
2022/07/22 09:10:18;;;;;;;;;;;28.30;99.90;;;;;;4120815;28;20050;-62
2022/07/22 09:12:34;;;;;;;2.25;1.42;;;28.30;99.90;;;;;;4127793;28;19925;-63
2022/07/22 09:14:59;;;;;;;2.50;1.42;;;28.30;99.90;;;;;;4127526;28;20100;-63
2022/07/22 09:17:38;;;;;;;3.65;1.50;;;28.20;99.90;;;;;;4127404;28;20125;-62
2022/07/22 09:19:59;;;;;;;2.70;1.33;;;28.20;99.90;;;;;;4127418;28;20046;-62
2022/07/22 09:22:32;;;;;;;2.80;1.60;;;28.10;99.90;;;;;;4127743;28;20128;-63
2022/07/22 09:24:51;;;;;;;;;;;28.00;99.90;;;;;;4128063;28;20133;-63
2022/07/22 09:27:08;;;;;;;1.70;1.35;;;28.00;99.90;;;;;;4127213;28;20348;-63
2022/07/22 09:29:33;;;;;;;1.77;1.20;;;28.00;99.90;;;;;;4126090;28;20046;-62
2022/07/22 09:32:01;;;;;;;4.95;1.58;;;28.00;99.90;;;;;;4126023;28;20382;-63
2022/07/22 09:34:34;;;;;;;3.70;1.90;;;28.00;99.90;;;;;;4117638;28;20073;-63
2022/07/22 09:36:56;;;;;;;3.15;1.63;;;27.70;99.90;;;;;;4135253;28;20049;-63
2022/07/22 09:39:02;;;;;;;4.00;1.40;;;26.90;99.90;;;;;;4128978;28;20164;-62
2022/07/22 09:41:11;;;;;;;3.95;1.70;;;26.60;99.90;;;;;;4127559;28;20034;-62
2022/07/22 09:43:19;;;;;;;3.47;1.20;;;26.40;99.90;;;;;;4127763;28;20064;-63
2022/07/22 09:45:25;;;;;;;1.88;1.10;;;26.30;99.90;;;;;;4139695;28;20140;-62
2022/07/22 09:47:30;;;;;;;7.55;1.88;;;26.20;99.90;;;;;;4136129;28;20125;-62
2022/07/22 09:49:53;;;;;;;6.10;1.77;;;26.30;99.90;;;;;;4127194;28;20038;-64
2022/07/22 09:52:14;;;;;;;4.82;1.80;;;26.40;99.90;;;;;;4133248;28;20257;-63
2022/07/22 09:54:31;;;;;;;3.58;1.30;;;26.40;99.90;;;;;;4134863;28;20096;-63
2022/07/22 09:56:40;;;;;;;3.40;1.40;;;26.40;99.90;;;;;;4134219;28;20497;-63
2022/07/22 09:58:51;;;;;;;3.85;1.45;;;26.40;99.90;;;;;;4131261;28;20481;-64
2022/07/22 10:01:10;;;;;;;2.85;1.27;;;26.40;99.90;;;;;;4131945;28;20045;-63
2022/07/22 10:03:21;;;;;;;3.22;1.88;;;26.40;99.90;;;;;;4127083;28;20050;-64
2022/07/22 10:05:30;;;;;;;6.25;3.33;;;26.50;99.90;;;;;;4128085;28;20089;-63
2022/07/22 10:07:37;;;;;;;3.40;1.90;;;26.60;99.90;;;;;;4126760;28;20224;-63
2022/07/22 10:09:44;;;;;;;3.03;1.33;;;26.30;99.90;;;;;;4121181;28;20457;-64
2022/07/22 10:11:50;;;;;;;4.32;1.55;;;26.50;99.90;;;;;;4126440;28;20564;-64
2022/07/22 10:14:04;;;;;;;4.75;1.50;;;26.60;99.90;;;;;;4125338;28;20502;-63
2022/07/22 10:16:12;;;;;;;3.22;1.30;;;26.80;99.90;;;;;;4125737;28;20045;-63
2022/07/22 10:18:22;;;;;;;2.88;1.45;;;26.70;99.90;;;;;;4120497;28;20089;-64
2022/07/22 10:20:35;;;;;;;4.18;1.48;;;26.70;99.90;;;;;;4126022;28;20077;-64
2022/07/22 10:23:00;;;;;;;4.28;1.10;;;26.60;99.90;;;;;;4123595;28;20077;-63
2022/07/22 10:25:13;;;;;;;3.22;1.30;;;26.70;99.90;;;;;;4124087;28;20109;-64
2022/07/22 10:27:52;;;;;;;2.58;0.90;;;26.60;99.90;;;;;;4125331;28;20057;-63
2022/07/22 10:30:00;;;;;;;3.63;1.33;;;26.80;99.90;;;;;;4134218;28;20056;-64
2022/07/22 10:32:24;;;;;;;5.93;1.80;;;26.80;99.90;;;;;;4131732;28;20070;-63
2022/07/22 10:34:34;;;;;;;5.75;2.65;;;26.70;99.90;;;;;;4132501;28;20053;-63
2022/07/22 10:36:42;;;;;;;3.28;2.03;;;26.80;99.90;;;;;;4132128;28;20046;-64
2022/07/22 10:39:08;;;;;;;5.07;2.10;;;26.80;99.90;;;;;;4111423;28;20489;-64
2022/07/22 10:41:34;;;;;;;4.45;2.30;;;26.70;99.90;;;;;;4132189;28;20533;-64
2022/07/22 10:43:52;;;;;;;6.93;2.80;;;26.80;99.90;;;;;;4126988;28;20077;-64
2022/07/22 10:46:00;;;;;;;4.90;3.08;;;26.80;99.90;;;;;;4131254;28;20552;-64
2022/07/22 10:48:08;;;;;;;6.25;3.33;;;26.80;99.90;;;;;;4129650;28;20123;-64
2022/07/22 10:50:47;;;;;;;4.82;2.90;;;26.80;99.90;;;;;;4130261;28;20065;-63
2022/07/22 10:52:52;;;;;;;3.38;2.58;;;26.80;99.90;;;;;;4132766;28;20485;-64
2022/07/22 10:55:18;;;;;;;5.82;2.75;;;26.80;99.90;;;;;;4117200;28;20609;-64
2022/07/22 10:57:32;;;;;;;12.02;8.30;;;26.90;99.90;;;;;;4133137;28;20050;-64
2022/07/22 10:59:54;;;;;;;11.32;8.68;;;26.80;99.90;;;;;;4136283;28;20128;-63
2022/07/22 11:01:59;;;;;;;10.07;7.68;;;26.80;99.90;;;;;;4133479;28;20041;-64
2022/07/22 11:04:16;;;;;;;12.18;8.52;;;26.80;99.90;;;;;;4133912;28;20042;-66
2022/07/22 11:06:29;;;;;;;14.63;6.18;;;26.80;99.90;;;;;;4129234;28;20524;-68
2022/07/22 11:08:35;;;;;;;8.30;4.85;;;26.80;99.90;;;;;;4131859;28;20294;-66
2022/07/22 11:10:50;;;;;;;7.40;5.43;;;26.70;99.90;;;;;;4133154;28;20634;-66
2022/07/22 11:12:56;;;;;;;8.05;4.50;;;26.70;99.90;;;;;;4134378;28;20133;-67
2022/07/22 11:15:03;;;;;;;7.72;4.05;;;26.80;99.90;;;;;;4130715;28;20050;-67
2022/07/22 11:17:10;;;;;;;6.00;3.53;;;26.60;99.90;;;;;;4146053;28;20041;-68
2022/07/22 11:19:16;;;;;;;7.72;3.20;;;26.70;99.90;;;;;;4130506;28;20447;-66
2022/07/22 11:21:22;;;;;;;5.90;2.78;;;26.50;99.90;;;;;;4163881;28;20041;-66
2022/07/22 11:23:29;;;;;;;4.47;2.38;;;26.60;99.90;;;;;;4133490;28;20073;-65
2022/07/22 11:25:34;;;;;;;4.45;1.98;;;26.60;99.90;;;;;;4130734;28;20037;-63
2022/07/22 11:27:38;;;;;;;4.20;2.50;;;26.70;99.90;;;;;;4133293;28;20497;-65
2022/07/22 11:29:47;;;;;;;8.73;2.53;;;26.60;99.90;;;;;;4128835;28;20150;-66
2022/07/22 11:31:53;;;;;;;5.55;3.30;;;26.70;99.90;;;;;;4117095;28;20066;-65
2022/07/22 11:34:10;;;;;;;4.28;3.30;;;26.70;99.90;;;;;;4132230;28;20069;-66
2022/07/22 11:36:16;;;;;;;5.88;2.92;;;26.70;99.90;;;;;;4132282;28;20137;-65
2022/07/22 11:38:47;;;;;;;5.22;3.40;;;26.80;99.90;;;;;;4133599;28;20045;-65
2022/07/22 11:40:57;;;;;;;6.43;3.08;;;26.70;99.90;;;;;;4141861;28;20432;-65
2022/07/22 11:43:08;;;;;;;5.78;3.13;;;26.80;99.90;;;;;;4170513;28;20060;-66
2022/07/22 11:45:14;;;;;;;5.57;2.70;;;26.70;99.90;;;;;;4115550;28;20043;-67
2022/07/22 11:47:19;;;;;;;5.63;3.20;;;26.80;99.90;;;;;;4119642;28;20043;-68
2022/07/22 11:49:29;;;;;;;6.28;3.90;;;26.70;99.90;;;;;;4125212;28;20096;-66
2022/07/22 11:51:37;;;;;;;4.03;3.50;;;26.70;99.90;;;;;;4094087;28;20059;-66
2022/07/22 11:53:42;;;;;;;6.55;3.40;;;26.70;99.90;;;;;;4126537;28;20050;-64
2022/07/22 11:55:47;;;;;;;6.57;3.45;;;26.70;99.90;;;;;;4139293;28;20470;-66
2022/07/22 11:57:55;;;;;;;6.30;3.83;;;26.70;99.90;;;;;;4138570;28;20073;-65
2022/07/22 12:00:08;;;;;;;6.97;4.22;;;26.60;99.90;;;;;;4128433;28;20065;-65
2022/07/22 12:02:28;;;;;;;7.82;3.75;;;26.50;99.90;;;;;;4122636;28;20379;-66
2022/07/22 12:04:42;;;;;;;4.93;3.33;;;26.60;99.90;;;;;;4119943;28;20062;-65
2022/07/22 12:06:47;;;;;;;6.68;2.85;;;26.70;99.90;;;;;;4128223;28;20054;-66
2022/07/22 12:08:57;;;;;;;4.55;2.50;;;26.70;99.90;;;;;;4127906;28;20050;-67
2022/07/22 12:11:01;;;;;;;7.25;2.60;;;26.70;99.90;;;;;;4111397;28;20520;-66
2022/07/22 12:13:06;;;;;;;4.95;2.22;;;26.70;99.90;;;;;;4130923;28;20256;-67
2022/07/22 12:15:13;;;;;;;2.78;1.75;;;26.80;99.90;;;;;;4133814;28;20417;-67
2022/07/22 12:17:38;;;;;;;2.22;1.88;;;26.70;99.90;;;;;;4133558;28;20113;-67
2022/07/22 12:19:43;;;;;;;3.67;2.05;;;26.70;99.90;;;;;;4164468;28;20559;-65
2022/07/22 12:22:00;;;;;;;7.20;2.20;;;26.70;99.90;;;;;;4137113;28;20137;-66
2022/07/22 12:24:41;;;;;;;6.32;2.70;;;26.80;99.90;;;;;;4124851;28;20049;-67
2022/07/22 12:26:53;;;;;;;8.13;3.30;;;26.80;99.90;;;;;;4125612;28;20101;-67
2022/07/22 12:29:21;;;;;;;4.70;2.95;;;26.70;99.90;;;;;;4162530;28;20136;-67
2022/07/22 12:31:31;;;;;;;9.05;5.25;;;26.70;99.90;;;;;;4129094;28;20509;-67
2022/07/22 12:33:50;;;;;;;11.65;6.28;;;26.70;99.90;;;;;;4160506;28;20565;-66
2022/07/22 12:36:14;;;;;;;9.35;5.50;;;26.70;99.90;;;;;;4156639;28;20045;-65
2022/07/22 12:38:19;;;;;;;6.50;5.25;;;26.70;99.90;;;;;;4131167;28;20524;-65
2022/07/22 12:40:25;;;;;;;6.18;4.25;;;26.70;99.90;;;;;;4130000;28;20311;-64
2022/07/22 12:42:31;;;;;;;4.25;3.85;;;26.70;99.90;;;;;;4132913;28;20129;-63
2022/07/22 12:44:38;;;;;;;8.13;4.82;;;26.60;99.90;;;;;;4131845;28;20481;-64
2022/07/22 12:46:50;;;;;;;7.38;3.40;;;26.60;99.90;;;;;;4133263;28;20050;-63
2022/07/22 12:48:59;;;;;;;5.88;3.95;;;26.60;99.90;;;;;;4130681;28;20085;-63
2022/07/22 12:51:06;;;;;;;5.45;3.55;;;26.70;99.90;;;;;;4126611;28;20081;-62
2022/07/22 12:53:15;;;;;;;5.70;3.55;;;26.60;99.90;;;;;;4111217;28;20148;-63
2022/07/22 12:55:22;;;;;;;6.45;3.03;;;26.70;99.90;;;;;;4131520;28;20182;-63
2022/07/22 12:57:29;;;;;;;6.45;2.97;;;26.70;99.90;;;;;;4133896;28;20361;-63